Time;durP1;ratioP1;P1;durP2;ratioP2;P2;SDS_P1;SDS_P2;PMS_P1;PMS_P2;Temp;Humidity;BMP_temperature;BMP_pressure;BME280_temperature;BME280_humidity;BME280_pressure;Samples;Min_cycle;Max_cycle;Signal;HPM_P1;HPM_P2
2022/11/12 00:03:37;;;;;;;11.15;6.95;;;;;;;6.84;100.00;102138.94;8392191;28;20043;-50
2022/11/12 00:07:58;;;;;;;12.60;6.85;;;;;;;6.50;100.00;102149.63;8358281;28;20583;-51
2022/11/12 00:12:19;;;;;;;11.40;5.88;;;;;;;6.10;100.00;102143.56;8374748;28;20044;-49
2022/11/12 00:16:39;;;;;;;8.80;6.47;;;;;;;6.31;100.00;102135.34;8392264;28;20379;-51
2022/11/12 00:21:00;;;;;;;10.65;6.43;;;;;;;6.33;100.00;102141.50;8374949;28;20421;-50
2022/11/12 00:25:20;;;;;;;9.13;6.25;;;;;;;6.45;100.00;102140.03;8378153;28;20439;-49
2022/11/12 00:29:40;;;;;;;10.07;6.18;;;;;;;6.28;100.00;102138.16;8377202;28;20037;-52
2022/11/12 00:34:01;;;;;;;10.32;6.53;;;;;;;6.03;100.00;102135.78;8395133;28;20416;-51
2022/11/12 00:38:21;;;;;;;11.82;6.43;;;;;;;6.24;100.00;102141.94;8395595;28;20119;-50
2022/11/12 00:42:42;;;;;;;10.90;6.35;;;;;;;6.16;100.00;102146.81;8378012;28;20054;-51
2022/11/12 00:47:03;;;;;;;9.50;6.50;;;;;;;6.05;100.00;102146.47;8390581;28;20045;-53
2022/11/12 00:51:24;;;;;;;16.83;7.43;;;;;;;5.95;100.00;102151.38;8393722;28;20044;-52
2022/11/12 00:55:44;;;;;;;12.80;6.93;;;;;;;6.12;100.00;102158.66;8394838;28;20490;-51
2022/11/12 01:00:06;;;;;;;14.65;7.45;;;;;;;6.19;100.00;102154.72;8376780;28;20044;-49
2022/11/12 01:04:27;;;;;;;12.05;6.90;;;;;;;6.25;100.00;102159.78;8377761;28;20029;-52
2022/11/12 01:08:48;;;;;;;11.15;7.15;;;;;;;6.17;100.00;102156.63;8378399;28;20502;-51
2022/11/12 01:13:08;;;;;;;12.80;7.47;;;;;;;6.13;100.00;102157.69;8376930;28;20040;-53
2022/11/12 01:17:28;;;;;;;11.35;7.30;;;;;;;6.04;100.00;102160.84;8377565;28;20527;-49
2022/11/12 01:21:49;;;;;;;13.57;8.65;;;;;;;6.00;100.00;102161.91;8377404;28;20035;-52
2022/11/12 01:26:12;;;;;;;12.40;8.52;;;;;;;5.97;100.00;102162.94;8377258;28;20033;-52
2022/11/12 01:30:33;;;;;;;14.88;8.75;;;;;;;5.84;100.00;102155.50;8376924;28;20040;-49
2022/11/12 01:34:53;;;;;;;12.77;8.45;;;;;;;5.94;100.00;102159.50;8375306;28;20094;-49
2022/11/12 01:39:14;;;;;;;15.50;8.20;;;;;;;5.80;100.00;102161.94;8376613;28;20061;-49
2022/11/12 01:43:35;;;;;;;15.38;9.07;;;;;;;5.75;100.00;102159.47;8371295;28;20401;-50
2022/11/12 01:47:55;;;;;;;14.07;8.35;;;;;;;5.73;100.00;102153.28;8363187;28;20032;-52
2022/11/12 01:56:36;;;;;;;14.90;8.80;;;;;;;5.73;100.00;102166.69;8321859;28;20823;-49
2022/11/12 02:00:56;;;;;;;16.65;9.38;;;;;;;5.87;100.00;102163.41;8320401;28;20046;-48
2022/11/12 02:05:18;;;;;;;15.23;9.30;;;;;;;5.87;100.00;102163.41;8321038;28;20042;-51
2022/11/12 02:09:38;;;;;;;16.67;10.40;;;;;;;5.78;100.00;102163.81;8320847;28;20053;-49
2022/11/12 02:14:00;;;;;;;18.75;9.70;;;;;;;5.59;100.00;102154.84;8318435;28;20041;-49
2022/11/12 02:18:21;;;;;;;16.30;10.32;;;;;;;5.58;100.00;102161.16;8318039;28;20474;-51
2022/11/12 02:22:41;;;;;;;19.85;9.77;;;;;;;5.65;100.00;102149.22;8319151;28;20048;-48
2022/11/12 02:27:03;;;;;;;18.17;10.57;;;;;;;5.66;100.00;102165.25;8320106;28;20044;-51
2022/11/12 02:31:24;;;;;;;18.58;10.30;;;;;;;5.73;100.00;102160.44;8286880;28;20034;-51
2022/11/12 02:35:45;;;;;;;18.60;9.13;;;;;;;5.73;100.00;102165.81;8287611;28;20405;-49
2022/11/12 02:40:06;;;;;;;15.82;9.73;;;;;;;5.68;100.00;102170.53;8287379;28;20046;-49
2022/11/12 02:44:27;;;;;;;13.40;8.60;;;;;;;5.67;100.00;102177.72;8294271;28;20037;-52
2022/11/12 02:48:47;;;;;;;13.05;8.50;;;;;;;5.61;100.00;102171.72;8318799;28;20057;-49
2022/11/12 02:53:08;;;;;;;12.88;6.75;;;;;;;5.75;100.00;102167.50;8319208;28;20033;-48
2022/11/12 02:57:29;;;;;;;11.35;7.50;;;;;;;5.81;100.00;102169.03;8319104;28;20092;-48
2022/11/12 03:01:49;;;;;;;14.32;7.40;;;;;;;5.81;100.00;102155.63;8318957;28;20536;-48
2022/11/12 03:06:10;;;;;;;10.63;7.60;;;;;;;5.67;100.00;102166.09;8306816;28;20038;-51
2022/11/12 03:10:30;;;;;;;11.65;7.25;;;;;;;5.64;100.00;102155.50;8291751;28;20037;-50
2022/11/12 03:14:51;;;;;;;12.45;7.68;;;;;;;5.57;100.00;102149.56;8297186;28;20042;-50
2022/11/12 03:19:12;;;;;;;14.73;7.47;;;;;;;5.50;100.00;102157.94;8296887;28;20052;-49
2022/11/12 03:23:32;;;;;;;13.57;8.13;;;;;;;5.49;100.00;102156.22;8296634;28;20503;-50
2022/11/12 03:28:14;;;;;;;12.32;6.80;;;;;;;5.50;100.00;102142.75;8295748;28;20100;-48
2022/11/12 03:32:35;;;;;;;12.45;8.05;;;;;;;5.42;100.00;102139.50;8296307;28;20048;-48
2022/11/12 03:36:55;;;;;;;12.68;7.82;;;;;;;5.33;100.00;102133.69;8291645;28;20132;-49
2022/11/12 03:41:15;;;;;;;13.23;7.88;;;;;;;5.26;100.00;102133.09;8293045;28;20057;-48
2022/11/12 03:45:36;;;;;;;13.48;8.02;;;;;;;5.32;100.00;102137.31;8296005;28;20033;-50
2022/11/12 03:49:56;;;;;;;13.05;7.78;;;;;;;5.39;100.00;102133.41;8295615;28;20068;-49
2022/11/12 03:54:17;;;;;;;14.57;8.55;;;;;;;5.48;100.00;102122.25;8292959;28;20034;-49
2022/11/12 03:58:37;;;;;;;17.00;8.73;;;;;;;5.54;100.00;102119.31;8295363;28;20042;-50
2022/11/12 04:02:58;;;;;;;14.43;8.40;;;;;;;5.62;100.00;102119.84;8293011;28;20504;-48
2022/11/12 04:08:50;;;;;;;18.88;9.85;;;;;;;5.61;100.00;102120.75;8294613;28;20119;-51
2022/11/12 04:13:26;;;;;;;15.68;8.80;;;;;;;5.65;100.00;102131.28;8294631;28;20042;-49
2022/11/12 04:21:56;;;;;;;14.65;9.15;;;;;;;5.37;100.00;102124.59;8294811;28;20041;-51
2022/11/12 04:26:32;;;;;;;15.75;8.93;;;;;;;5.22;100.00;102122.56;8291620;28;20569;-48
2022/11/12 04:30:42;;;;;;;17.63;9.50;;;;;;;5.22;100.00;102112.69;8294649;28;20450;-51
2022/11/12 04:35:04;;;;;;;19.45;10.20;;;;;;;5.28;100.00;102116.94;8297796;28;20506;-48
2022/11/12 04:39:24;;;;;;;21.80;10.25;;;;;;;5.33;100.00;102101.50;8293798;28;20395;-49
2022/11/12 04:45:17;;;;;;;20.10;10.65;;;;;;;5.29;100.00;102108.81;8293882;28;20044;-48
2022/11/12 04:48:25;;;;;;;17.00;9.70;;;;;;;5.22;100.00;102103.81;8293673;28;20061;-49
2022/11/12 04:52:46;;;;;;;17.42;9.98;;;;;;;5.16;100.00;102098.72;8293310;28;20041;-49
2022/11/12 04:57:06;;;;;;;16.13;9.38;;;;;;;5.11;100.00;102095.34;8291665;28;20045;-52
2022/11/12 05:01:26;;;;;;;17.30;8.88;;;;;;;5.11;100.00;102090.00;8291273;28;20577;-49
2022/11/12 05:05:47;;;;;;;17.90;9.35;;;;;;;5.04;100.00;102077.81;8276951;28;20037;-51
2022/11/12 05:10:08;;;;;;;14.85;8.73;;;;;;;4.98;100.00;102089.69;8291919;28;20052;-50
2022/11/12 05:14:29;;;;;;;14.55;8.13;;;;;;;4.96;100.00;102086.19;8293001;28;20503;-50
2022/11/12 05:18:49;;;;;;;16.13;10.25;;;;;;;4.91;100.00;102084.66;8293149;28;20054;-48
2022/11/12 05:23:10;;;;;;;19.95;10.25;;;;;;;4.81;100.00;102080.59;8292891;28;20034;-49
2022/11/12 05:27:30;;;;;;;20.88;10.40;;;;;;;4.77;100.00;102089.72;8292595;28;20491;-48
2022/11/12 05:31:59;;;;;;;19.63;10.82;;;;;;;4.92;100.00;102067.63;8292741;28;20042;-48
2022/11/12 05:36:20;;;;;;;26.73;12.82;;;;;;;5.09;100.00;102070.44;8291768;28;20034;-48
2022/11/12 05:40:44;;;;;;;20.23;11.73;;;;;;;5.17;100.00;102062.91;8292333;28;20514;-48
2022/11/12 05:45:05;;;;;;;24.20;11.60;;;;;;;5.15;100.00;102046.00;8292211;28;20053;-50
2022/11/12 05:49:25;;;;;;;25.35;12.65;;;;;;;5.14;100.00;102049.66;8292467;28;20451;-50
2022/11/12 05:53:46;;;;;;;25.90;12.63;;;;;;;5.14;100.00;102058.56;8290675;28;20038;-48
2022/11/12 05:58:06;;;;;;;22.92;12.75;;;;;;;5.19;100.00;102059.22;8268465;28;20056;-48
2022/11/12 06:02:27;;;;;;;28.48;13.23;;;;;;;5.23;100.00;102062.63;8271016;28;20125;-50
2022/11/12 06:06:47;;;;;;;23.25;12.77;;;;;;;5.20;100.00;102065.47;8283826;28;20103;-49
2022/11/12 06:11:08;;;;;;;29.98;13.48;;;;;;;5.13;100.00;102064.00;8273459;28;20118;-48
2022/11/12 06:15:28;;;;;;;27.02;13.88;;;;;;;5.09;100.00;102065.09;8278713;28;20038;-49
2022/11/12 06:19:48;;;;;;;32.47;14.55;;;;;;;5.13;100.00;102072.94;8264038;28;20068;-48
2022/11/12 06:24:09;;;;;;;28.80;14.40;;;;;;;5.17;100.00;102079.88;8278231;28;20037;-50
2022/11/12 06:28:29;;;;;;;27.52;15.23;;;;;;;5.09;100.00;102081.16;8262031;28;20042;-48
2022/11/12 06:32:50;;;;;;;31.27;13.68;;;;;;;5.01;100.00;102094.03;8280695;28;20042;-48
2022/11/12 06:37:11;;;;;;;29.42;14.70;;;;;;;4.92;100.00;102094.41;8270076;28;20042;-48
2022/11/12 06:41:31;;;;;;;28.83;13.95;;;;;;;4.90;100.00;102107.00;8278763;28;20030;-48
2022/11/12 06:45:52;;;;;;;24.70;12.60;;;;;;;4.93;100.00;102109.56;8280292;28;20038;-49
2022/11/12 06:50:12;;;;;;;26.55;13.52;;;;;;;5.03;100.00;102113.59;8280854;28;20522;-49
2022/11/12 06:54:33;;;;;;;29.40;14.30;;;;;;;5.06;100.00;102113.47;8276694;28;20514;-49
2022/11/12 06:58:53;;;;;;;26.00;13.07;;;;;;;5.06;100.00;102118.81;8260376;28;20057;-48
2022/11/12 07:03:14;;;;;;;27.20;13.10;;;;;;;5.06;100.00;102116.16;8279072;28;20376;-52
2022/11/12 07:07:35;;;;;;;30.40;14.55;;;;;;;5.02;100.00;102119.88;8279624;28;20140;-49
2022/11/12 07:11:55;;;;;;;29.75;14.48;;;;;;;5.08;100.00;102125.84;8272457;28;20080;-50
2022/11/12 07:16:17;;;;;;;33.15;16.92;;;;;;;5.17;100.00;102121.88;8276615;28;20048;-49
2022/11/12 07:20:37;;;;;;;35.33;18.90;;;;;;;5.40;100.00;102119.94;8290819;28;20090;-49
2022/11/12 07:24:58;;;;;;;31.95;15.07;;;;;;;5.54;100.00;102122.88;8274609;28;20504;-50
2022/11/12 07:29:18;;;;;;;33.05;15.93;;;;;;;5.66;100.00;102121.44;8280779;28;20034;-48
2022/11/12 07:33:39;;;;;;;26.85;12.68;;;;;;;5.68;100.00;102111.50;8275730;28;20029;-50
2022/11/12 07:37:59;;;;;;;23.10;13.10;;;;;;;5.73;100.00;102117.50;8278682;28;20050;-48
2022/11/12 07:42:20;;;;;;;26.30;14.25;;;;;;;5.78;100.00;102118.19;8267854;28;20084;-50
2022/11/12 07:47:08;;;;;;;25.50;13.45;;;;;;;5.96;100.00;102125.41;8281783;28;20037;-48
2022/11/12 07:51:29;;;;;;;19.48;11.52;;;;;;;5.99;100.00;102125.28;8285929;28;20069;-49
2022/11/12 07:55:59;;;;;;;23.70;12.70;;;;;;;6.19;100.00;102122.50;8278273;28;20053;-51
2022/11/12 08:00:20;;;;;;;21.95;12.40;;;;;;;6.43;100.00;102118.63;8262739;28;20527;-48
2022/11/12 08:04:40;;;;;;;21.55;12.15;;;;;;;6.67;100.00;102125.47;8284497;28;20088;-48
2022/11/12 08:09:03;;;;;;;22.13;12.90;;;;;;;6.89;100.00;102131.50;8272185;28;20112;-48
2022/11/12 08:13:24;;;;;;;23.87;16.13;;;;;;;7.16;100.00;102129.22;8270857;28;20132;-48
2022/11/12 08:17:45;;;;;;;25.48;17.45;;;;;;;7.44;100.00;102134.91;8275538;28;20616;-51
2022/11/12 08:22:05;;;;;;;14.57;9.23;;;;;;;7.65;100.00;102133.72;8275937;28;20069;-50
2022/11/12 08:26:26;;;;;;;15.15;9.00;;;;;;;7.89;100.00;102145.88;8289391;28;20041;-52
2022/11/12 08:30:46;;;;;;;15.57;9.07;;;;;;;8.03;100.00;102156.78;8278524;28;20034;-49
2022/11/12 08:35:07;;;;;;;10.75;8.20;;;;;;;8.16;100.00;102151.56;8274465;28;20065;-50
2022/11/12 08:39:27;;;;;;;15.95;8.98;;;;;;;9.46;98.57;102149.19;8268878;28;20526;-49
2022/11/12 08:43:48;;;;;;;11.20;6.25;;;;;;;10.39;89.73;102145.06;8276642;28;20069;-49
2022/11/12 08:48:13;;;;;;;8.45;6.35;;;;;;;10.88;86.84;102143.56;8276577;28;20037;-49
2022/11/12 08:52:33;;;;;;;8.35;5.78;;;;;;;11.87;82.53;102141.16;8288335;28;20034;-50
2022/11/12 08:56:54;;;;;;;7.88;4.88;;;;;;;11.95;79.84;102135.19;8283140;28;20128;-49
2022/11/12 09:01:14;;;;;;;6.85;5.50;;;;;;;12.14;80.53;102146.44;8287506;28;20142;-49
2022/11/12 09:05:35;;;;;;;9.27;4.78;;;;;;;12.93;77.63;102150.44;8282393;28;20042;-53
2022/11/12 09:09:55;;;;;;;5.80;4.25;;;;;;;12.94;76.46;102135.84;8286130;28;20454;-49
2022/11/12 09:14:16;;;;;;;6.75;4.28;;;;;;;12.87;76.01;102135.44;8287952;28;20042;-51
2022/11/12 09:18:36;;;;;;;5.70;4.57;;;;;;;12.49;78.04;102128.44;8267991;28;20152;-52
2022/11/12 09:23:00;;;;;;;7.05;4.65;;;;;;;12.68;78.75;102134.22;8284662;28;20115;-51
2022/11/12 09:27:21;;;;;;;;;;;;;;;12.92;76.69;102137.81;8284389;28;20058;-49
2022/11/12 09:31:41;;;;;;;6.47;4.38;;;;;;;12.37;78.86;102134.78;8258498;28;19961;-49
2022/11/12 09:36:02;;;;;;;9.35;5.30;;;;;;;12.55;80.79;102133.41;8278222;28;20407;-52
2022/11/12 09:40:40;;;;;;;7.43;3.75;;;;;;;13.55;78.18;102132.91;8280581;28;20125;-49
2022/11/12 09:45:12;;;;;;;7.15;4.50;;;;;;;13.61;76.04;102135.13;8283139;28;20584;-51
2022/11/12 09:49:42;;;;;;;5.22;3.67;;;;;;;14.07;75.37;102130.47;8283093;28;20445;-52
2022/11/12 09:54:28;;;;;;;4.82;4.05;;;;;;;14.41;73.75;102134.94;8285280;28;20065;-49
2022/11/12 09:58:50;;;;;;;8.30;6.20;;;;;;;14.78;73.34;102125.44;8279294;28;20074;-50
2022/11/12 10:03:21;;;;;;;10.25;6.47;;;;;;;14.74;73.44;102131.28;8279140;28;20099;-49
2022/11/12 10:08:15;;;;;;;12.10;7.43;;;;;;;15.00;73.55;102128.09;8279550;28;20033;-49
2022/11/12 10:13:02;;;;;;;9.13;7.10;;;;;;;15.19;72.81;102122.81;8272773;28;20038;-52
2022/11/12 10:17:43;;;;;;;8.93;6.03;;;;;;;15.91;70.92;102121.03;8269924;28;20278;-51
2022/11/12 10:26:44;;;;;;;7.22;5.70;;;;;;;16.11;71.13;102121.97;8334384;27;20404;-51
2022/11/12 10:31:14;;;;;;;9.13;5.43;;;;;;;16.71;69.75;102111.00;8333776;28;20049;-53
2022/11/12 10:35:35;;;;;;;7.78;5.05;;;;;;;16.60;68.76;102113.84;8334862;28;20038;-50
2022/11/12 10:39:56;;;;;;;6.65;5.05;;;;;;;16.81;69.38;102107.25;8331642;28;20091;-52
2022/11/12 10:44:26;;;;;;;6.03;5.05;;;;;;;16.33;71.27;102105.41;8331952;28;20577;-52
2022/11/12 10:48:55;;;;;;;7.80;5.53;;;;;;;16.63;70.20;102103.50;8315674;28;20045;-53
2022/11/12 10:53:32;;;;;;;9.02;5.53;;;;;;;16.10;71.96;102095.72;8341499;28;20040;-50
2022/11/12 10:58:15;;;;;;;6.95;5.20;;;;;;;16.26;72.54;102080.53;8290279;28;20406;-53
2022/11/12 11:02:35;;;;;;;5.88;5.20;;;;;;;15.89;73.71;102081.25;8312259;28;20037;-54
2022/11/12 11:07:06;;;;;;;6.82;5.07;;;;;;;16.11;73.62;102072.88;8345807;28;20419;-54
2022/11/12 11:11:29;;;;;;;8.45;5.95;;;;;;;16.94;71.53;102068.72;8339333;28;20542;-51
2022/11/12 11:16:09;;;;;;;9.63;5.85;;;;;;;17.36;69.54;102070.16;8346170;28;20556;-54
2022/11/12 11:20:43;;;;;;;8.55;6.10;;;;;;;18.09;67.34;102059.28;8345404;28;20043;-54
2022/11/12 11:25:16;;;;;;;7.13;5.38;;;;;;;18.19;66.13;102065.56;8346388;28;20507;-53
2022/11/12 11:29:51;;;;;;;10.82;6.40;;;;;;;18.06;68.65;102058.72;8348028;28;20041;-53
2022/11/12 11:34:39;;;;;;;11.02;6.75;;;;;;;18.08;67.65;102052.06;8345276;28;20083;-54
2022/11/12 11:39:15;;;;;;;10.57;6.28;;;;;;;17.81;67.14;102049.28;8323845;28;20045;-52
2022/11/12 11:44:16;;;;;;;7.90;5.90;;;;;;;16.84;69.49;102051.47;8321202;28;20120;-53
2022/11/12 11:49:16;;;;;;;7.53;5.22;;;;;;;17.29;69.32;102041.66;8322493;28;20502;-50
2022/11/12 11:54:04;;;;;;;7.75;4.75;;;;;;;17.35;67.92;102043.78;8314705;28;20041;-51
2022/11/12 11:59:04;;;;;;;7.70;4.90;;;;;;;16.79;69.28;102031.91;8331239;28;20075;-52
2022/11/12 12:03:46;;;;;;;6.05;4.60;;;;;;;17.11;67.78;102032.50;8311348;28;20522;-50
2022/11/12 12:08:23;;;;;;;6.10;4.65;;;;;;;17.15;68.88;102028.44;8288855;28;20057;-52
2022/11/12 12:13:09;;;;;;;6.85;4.43;;;;;;;17.02;67.65;102033.38;8289057;28;21238;-50
2022/11/12 12:17:46;;;;;;;7.35;4.53;;;;;;;17.08;67.29;102019.13;8288583;28;20037;-53
2022/11/12 12:22:14;;;;;;;5.65;4.20;;;;;;;17.27;68.71;102021.81;8289532;28;20478;-53
2022/11/12 12:26:46;;;;;;;4.47;3.72;;;;;;;17.24;68.06;102022.09;8286857;28;20034;-50
2022/11/12 12:31:15;;;;;;;6.05;3.65;;;;;;;18.04;66.40;102017.81;8291671;28;20041;-54
2022/11/12 12:35:55;;;;;;;11.38;4.90;;;;;;;18.58;63.71;102014.19;8288087;28;20406;-49
2022/11/12 12:40:21;;;;;;;8.43;5.10;;;;;;;18.23;65.07;102019.56;8288462;28;20076;-49
2022/11/12 12:45:06;;;;;;;7.15;3.45;;;;;;;17.28;66.57;102012.59;8289376;28;20525;-50
2022/11/12 12:49:33;;;;;;;6.15;4.35;;;;;;;16.73;69.37;102010.63;8287125;28;20045;-52
2022/11/12 12:53:53;;;;;;;7.15;3.72;;;;;;;15.97;71.21;102005.03;8287778;28;20037;-54
2022/11/12 12:58:18;;;;;;;5.68;3.50;;;;;;;15.67;72.34;102009.53;8293155;28;20507;-50
2022/11/12 13:02:39;;;;;;;6.57;3.70;;;;;;;15.53;73.39;102007.16;8287278;28;20226;-52
2022/11/12 13:06:59;;;;;;;4.28;3.60;;;;;;;15.39;74.85;102007.53;8289736;28;20385;-53
2022/11/12 13:21:19;;;;;;;6.68;4.35;;;;;;;15.64;74.04;101993.44;8327860;28;20415;-50
2022/11/12 13:25:39;;;;;;;6.85;4.30;;;;;;;15.69;73.34;101984.84;8307010;28;20042;-52
2022/11/12 13:30:00;;;;;;;5.25;4.07;;;;;;;15.77;73.60;101986.88;8364110;28;20454;-53
2022/11/12 13:34:27;;;;;;;6.68;3.88;;;;;;;15.58;74.84;101974.91;8316067;28;20069;-53
2022/11/12 13:38:48;;;;;;;6.35;4.43;;;;;;;15.71;74.35;101978.25;8319768;28;20041;-51
2022/11/12 13:43:46;;;;;;;5.55;4.55;;;;;;;15.57;73.96;101978.63;8347883;28;20628;-53
2022/11/12 13:48:11;;;;;;;7.47;4.93;;;;;;;15.54;73.94;101972.59;8313468;28;20478;-50
2022/11/12 13:52:33;;;;;;;10.23;5.68;;;;;;;15.46;74.81;101967.81;8283303;28;20045;-51
2022/11/12 13:56:54;;;;;;;10.35;6.00;;;;;;;15.45;74.69;101966.09;8307750;28;20034;-52
2022/11/12 14:01:19;;;;;;;7.55;5.18;;;;;;;15.53;74.80;101968.13;8336859;28;21508;-49
2022/11/12 14:05:47;;;;;;;7.07;3.92;;;;;;;15.54;76.29;101958.94;8328970;28;20044;-52
2022/11/12 14:10:48;;;;;;;6.70;3.90;;;;;;;15.50;76.23;101971.13;8331162;28;20124;-52
2022/11/12 14:15:22;;;;;;;5.93;3.58;;;;;;;15.34;75.52;101963.41;8303714;28;20034;-51
2022/11/12 14:20:02;;;;;;;;;;;;;;;15.40;75.94;101952.00;8303774;28;20065;-51
2022/11/12 14:24:22;;;;;;;8.30;5.38;;;;;;;15.48;75.53;101949.47;8315334;28;19921;-50
2022/11/12 14:28:43;;;;;;;12.30;7.15;;;;;;;15.52;76.30;101960.94;8312203;28;20038;-53
2022/11/12 14:33:08;;;;;;;20.77;9.65;;;;;;;15.45;76.44;101955.19;8275809;28;20087;-53
2022/11/12 14:37:38;;;;;;;9.60;5.75;;;;;;;15.35;77.58;101953.38;8272617;28;20049;-53
2022/11/12 14:41:59;;;;;;;7.22;4.75;;;;;;;15.36;77.44;101952.38;8270361;28;20551;-51
2022/11/12 14:46:30;;;;;;;11.63;5.45;;;;;;;15.26;77.76;101954.19;8270483;28;20046;-51
2022/11/12 14:50:59;;;;;;;9.43;5.03;;;;;;;15.27;78.38;101951.34;8261576;28;20107;-50
2022/11/12 14:55:26;;;;;;;9.95;5.20;;;;;;;15.22;77.92;101942.69;8310470;28;20047;-50
2022/11/12 14:59:46;;;;;;;8.25;5.53;;;;;;;15.24;77.68;101940.72;8326049;28;20053;-51
2022/11/12 15:08:32;;;;;;;8.10;4.43;;;;;;;14.93;79.98;101930.78;8395774;27;20392;-52
2022/11/12 15:13:01;;;;;;;6.32;5.10;;;;;;;14.89;79.93;101928.47;8390615;28;20032;-53
2022/11/12 15:17:34;;;;;;;7.35;5.18;;;;;;;14.79;80.49;101922.94;8342887;28;20493;-53
2022/11/12 15:22:00;;;;;;;9.97;5.53;;;;;;;14.64;81.16;101927.00;8333200;28;20039;-50
2022/11/12 15:26:41;;;;;;;6.90;4.90;;;;;;;14.58;81.37;101918.50;8349141;28;20029;-51
2022/11/12 15:31:15;;;;;;;9.63;5.65;;;;;;;14.46;82.10;101925.88;8355544;28;20410;-51
2022/11/12 15:35:42;;;;;;;9.18;5.47;;;;;;;14.42;82.23;101907.22;8345129;28;20165;-50
2022/11/12 15:40:11;;;;;;;7.13;5.22;;;;;;;14.25;82.75;101903.22;8346763;28;20721;-52
2022/11/12 15:44:35;;;;;;;8.93;6.13;;;;;;;14.05;83.69;101901.28;8336834;28;20455;-50
2022/11/12 15:48:55;;;;;;;;;;;;;;;13.94;84.52;101905.91;8321667;28;20037;-51
2022/11/12 15:53:16;;;;;;;11.70;6.47;;;;;;;13.84;84.92;101901.22;8344220;28;20003;-51
2022/11/12 15:57:42;;;;;;;12.32;6.57;;;;;;;13.78;85.18;101896.28;8345774;28;20048;-50
2022/11/12 16:02:02;;;;;;;10.13;7.22;;;;;;;13.56;86.35;101904.50;8338807;28;20037;-50
2022/11/12 16:06:23;;;;;;;13.40;6.93;;;;;;;13.33;88.01;101904.66;8331948;28;20341;-50
2022/11/12 16:10:45;;;;;;;9.68;6.30;;;;;;;13.37;88.20;101906.13;8329621;28;20038;-50
2022/11/12 16:15:14;;;;;;;10.77;6.57;;;;;;;13.22;89.18;101901.94;8331480;28;20456;-50
2022/11/12 16:19:35;;;;;;;10.13;6.57;;;;;;;13.02;90.06;101898.09;8328169;28;20116;-54
2022/11/12 16:23:55;;;;;;;11.52;7.18;;;;;;;13.05;89.62;101899.72;8352749;28;20514;-51
2022/11/12 16:28:17;;;;;;;9.27;7.03;;;;;;;13.03;89.22;101890.81;8335682;28;20049;-51
2022/11/12 16:32:38;;;;;;;10.90;6.57;;;;;;;13.09;88.59;101893.91;8337483;28;20537;-51
2022/11/12 16:36:58;;;;;;;9.90;7.07;;;;;;;13.12;87.58;101892.81;8317650;28;20717;-51
2022/11/12 16:41:19;;;;;;;10.55;6.88;;;;;;;13.00;88.01;101893.78;8320743;28;20070;-52
2022/11/12 16:45:42;;;;;;;17.75;7.07;;;;;;;12.91;88.45;101897.19;8319603;28;20466;-51
2022/11/12 16:50:03;;;;;;;10.27;6.70;;;;;;;12.87;88.36;101890.28;8323332;28;20452;-52
2022/11/12 16:54:23;;;;;;;11.20;6.75;;;;;;;12.84;88.61;101885.09;8320673;28;20034;-50
2022/11/12 16:58:44;;;;;;;10.57;7.75;;;;;;;12.82;88.78;101881.63;8317082;28;20357;-51
2022/11/12 17:03:07;;;;;;;9.07;7.13;;;;;;;12.83;88.70;101888.78;8317082;28;20514;-52
2022/11/12 17:07:27;;;;;;;10.20;6.18;;;;;;;12.79;88.88;101887.31;8317435;28;20518;-54
2022/11/12 17:11:48;;;;;;;8.50;6.55;;;;;;;12.78;89.09;101893.72;8318823;28;20034;-50
2022/11/12 17:16:09;;;;;;;11.25;6.78;;;;;;;12.68;89.72;101890.00;8304611;28;20215;-52
2022/11/12 17:20:30;;;;;;;14.18;7.07;;;;;;;12.53;90.22;101883.09;8295263;28;20072;-50
2022/11/12 17:24:50;;;;;;;8.82;6.90;;;;;;;12.33;91.37;101878.34;8300713;28;20045;-51
2022/11/12 17:29:11;;;;;;;11.32;7.65;;;;;;;12.28;91.88;101875.97;8319482;28;20029;-51
2022/11/12 17:33:36;;;;;;;10.80;6.90;;;;;;;12.17;92.41;101878.63;8319893;28;20128;-50
2022/11/12 17:37:56;;;;;;;14.75;8.93;;;;;;;12.05;93.08;101878.72;8320137;28;20033;-52
2022/11/12 17:42:18;;;;;;;10.15;7.45;;;;;;;12.01;93.43;101877.25;8321264;28;20048;-50
2022/11/12 17:46:38;;;;;;;13.52;7.78;;;;;;;11.96;93.86;101868.56;8285569;28;20065;-55
2022/11/12 17:51:07;;;;;;;12.65;7.40;;;;;;;11.88;94.05;101861.91;8287452;28;20038;-53
2022/11/12 17:55:28;;;;;;;8.90;7.30;;;;;;;11.83;94.15;101864.09;8284079;28;20121;-54
2022/11/12 17:59:48;;;;;;;14.27;7.78;;;;;;;11.82;94.40;101861.50;8309332;28;20488;-52
2022/11/12 18:04:09;;;;;;;11.73;8.07;;;;;;;11.76;94.74;101861.94;8317194;28;20049;-54
2022/11/12 18:08:30;;;;;;;9.52;6.78;;;;;;;11.71;94.75;101866.84;8307503;28;20045;-51
2022/11/12 18:12:51;;;;;;;9.45;6.97;;;;;;;11.69;94.91;101866.94;8321163;28;20041;-54
2022/11/12 18:17:13;;;;;;;11.05;6.60;;;;;;;11.64;94.98;101866.44;8316447;28;20042;-52
2022/11/12 18:21:33;;;;;;;10.68;6.47;;;;;;;11.62;94.88;101860.28;8319020;28;20041;-54
2022/11/12 18:25:54;;;;;;;8.48;6.57;;;;;;;11.66;94.87;101858.22;8300081;28;20057;-55
2022/11/12 18:30:15;;;;;;;12.55;6.40;;;;;;;11.70;94.38;101863.28;8314090;28;20033;-50
2022/11/12 18:34:40;;;;;;;6.95;6.10;;;;;;;11.69;93.90;101850.69;8300873;28;20452;-51
2022/11/12 18:39:03;;;;;;;12.20;6.80;;;;;;;11.76;93.12;101852.00;8304317;28;20495;-50
2022/11/12 18:43:23;;;;;;;11.55;8.10;;;;;;;11.70;93.17;101852.44;8293293;28;20121;-55
2022/11/12 18:47:44;;;;;;;9.80;7.32;;;;;;;11.64;93.68;101847.50;8315491;28;20046;-51
2022/11/12 18:52:04;;;;;;;7.65;5.97;;;;;;;11.56;94.25;101849.88;8304698;28;20072;-50
2022/11/12 18:56:24;;;;;;;9.30;7.65;;;;;;;11.53;94.29;101843.84;8305044;28;20045;-50
2022/11/12 19:00:45;;;;;;;11.00;7.28;;;;;;;11.48;94.38;101841.47;8310093;28;20068;-50
2022/11/12 19:05:06;;;;;;;8.68;6.90;;;;;;;11.45;94.68;101846.22;8319927;28;20040;-50
2022/11/12 19:09:27;;;;;;;9.57;6.60;;;;;;;11.43;94.45;101840.94;8320230;28;20045;-50
2022/11/12 19:13:50;;;;;;;11.65;7.47;;;;;;;11.40;94.61;101834.88;8305278;28;20125;-54
2022/11/12 19:18:10;;;;;;;11.38;7.18;;;;;;;11.32;95.03;101840.00;8296993;28;20045;-50
2022/11/12 19:22:31;;;;;;;11.30;7.22;;;;;;;11.29;95.47;101840.22;8316602;28;20429;-50
2022/11/12 19:26:51;;;;;;;9.02;6.90;;;;;;;11.29;95.34;101841.06;8317906;28;20514;-51
2022/11/12 19:31:15;;;;;;;8.65;6.70;;;;;;;11.29;95.52;101829.41;8313761;28;20045;-50
2022/11/12 19:35:38;;;;;;;;;;;;;;;11.22;96.03;101845.22;8316516;28;20049;-52
2022/11/12 19:39:58;;;;;;;11.10;7.30;;;;;;;11.19;96.06;101837.31;8316449;28;19917;-52
2022/11/12 19:44:18;;;;;;;10.93;7.30;;;;;;;11.13;96.41;101829.63;8317845;28;20085;-51
2022/11/12 19:48:39;;;;;;;10.65;7.25;;;;;;;11.12;96.44;101822.50;8317501;28;20053;-51
2022/11/12 19:52:59;;;;;;;11.38;8.02;;;;;;;11.13;96.40;101818.81;8318979;28;20033;-50
2022/11/12 19:57:21;;;;;;;9.73;6.72;;;;;;;11.13;96.29;101817.97;8323744;28;20038;-53
2022/11/12 20:01:42;;;;;;;10.15;7.55;;;;;;;11.03;96.74;101815.06;8322718;28;20525;-50
2022/11/12 20:06:04;;;;;;;12.32;7.30;;;;;;;10.96;97.04;101815.63;8314275;28;20068;-50
2022/11/12 20:10:25;;;;;;;12.18;7.50;;;;;;;10.94;97.20;101812.16;8296594;28;20045;-50
2022/11/12 20:14:46;;;;;;;12.93;7.85;;;;;;;10.86;97.09;101799.16;8323557;28;20042;-52
2022/11/12 20:19:06;;;;;;;9.20;6.93;;;;;;;10.92;96.70;101804.13;8312989;28;20042;-51
2022/11/12 20:23:27;;;;;;;12.52;8.85;;;;;;;10.94;96.13;101794.06;8314547;28;20854;-51
2022/11/12 20:27:47;;;;;;;15.57;9.57;;;;;;;10.94;96.35;101795.91;8306907;28;20072;-52
2022/11/12 20:32:08;;;;;;;17.42;8.70;;;;;;;10.93;95.99;101795.06;8293889;28;20077;-51
2022/11/12 20:36:30;;;;;;;14.02;8.77;;;;;;;10.87;95.96;101790.09;8321477;28;20048;-50
2022/11/12 20:40:56;;;;;;;10.48;7.55;;;;;;;10.91;95.33;101799.72;8318082;28;20046;-52
2022/11/12 20:45:16;;;;;;;11.82;8.15;;;;;;;10.87;95.51;101787.41;8320796;28;20041;-51
2022/11/12 20:49:37;;;;;;;11.45;8.05;;;;;;;10.86;95.40;101788.34;8316838;28;20041;-50